Time;durP1;ratioP1;P1;durP2;ratioP2;P2;SDS_P1;SDS_P2;PMS_P1;PMS_P2;Temp;Humidity;BMP_temperature;BMP_pressure;BME280_temperature;BME280_humidity;BME280_pressure;Samples;Min_cycle;Max_cycle;Signal;HPM_P1;HPM_P2
2023/08/08 00:02:19;;;;;;;3.92;1.38;;;;;;;11.25;100.00;100584.69;6100573;28;20039;-64
2023/08/08 00:05:14;;;;;;;4.38;1.30;;;;;;;11.22;100.00;100577.03;6100193;28;20037;-64
2023/08/08 00:08:09;;;;;;;4.43;1.53;;;;;;;11.22;100.00;100585.00;6100507;28;20411;-64
2023/08/08 00:11:05;;;;;;;3.40;1.30;;;;;;;11.16;100.00;100580.28;6100729;28;20090;-64
2023/08/08 00:14:00;;;;;;;5.85;1.50;;;;;;;11.13;100.00;100572.63;6100008;28;20119;-65
2023/08/08 00:16:56;;;;;;;6.07;1.38;;;;;;;11.03;100.00;100558.63;6099477;28;20033;-64
2023/08/08 00:19:51;;;;;;;2.63;1.33;;;;;;;11.00;100.00;100548.31;6100368;28;20090;-64
2023/08/08 00:22:46;;;;;;;4.17;1.40;;;;;;;11.03;100.00;100571.91;6100130;28;20024;-63
2023/08/08 00:25:42;;;;;;;4.63;1.37;;;;;;;11.00;100.00;100572.19;6099373;28;20025;-63
2023/08/08 00:28:37;;;;;;;5.83;1.70;;;;;;;10.87;100.00;100553.19;6100342;28;20067;-63
2023/08/08 00:31:32;;;;;;;3.72;1.50;;;;;;;10.87;100.00;100529.31;6105397;28;20630;-63
2023/08/08 00:34:28;;;;;;;2.77;1.50;;;;;;;11.02;100.00;100547.16;6099313;28;20033;-63
2023/08/08 00:37:23;;;;;;;6.33;1.60;;;;;;;10.96;100.00;100538.97;6109946;28;20031;-63
2023/08/08 00:40:18;;;;;;;3.93;1.40;;;;;;;11.07;100.00;100565.28;6103828;28;20029;-63
2023/08/08 00:43:14;;;;;;;4.13;2.17;;;;;;;11.03;100.00;100558.63;6101795;28;20375;-63
2023/08/08 00:46:10;;;;;;;8.83;1.67;;;;;;;10.97;100.00;100540.66;6088384;28;20267;-63
2023/08/08 00:49:05;;;;;;;4.20;1.52;;;;;;;11.10;100.00;100557.00;6098511;28;20107;-63
2023/08/08 00:52:01;;;;;;;4.20;1.80;;;;;;;11.08;100.00;100543.91;6099751;28;20031;-63
2023/08/08 00:54:57;;;;;;;6.30;2.35;;;;;;;11.00;100.00;100516.47;6105640;28;20028;-63
2023/08/08 00:57:52;;;;;;;4.30;1.63;;;;;;;11.14;100.00;100539.81;6114668;28;20100;-65
2023/08/08 01:00:47;;;;;;;6.13;2.03;;;;;;;11.10;100.00;100530.47;6108423;28;20468;-63
2023/08/08 01:03:43;;;;;;;6.33;2.00;;;;;;;11.14;100.00;100526.53;6098800;28;20040;-63
2023/08/08 01:07:22;;;;;;;4.03;1.50;;;;;;;11.20;100.00;100536.50;6107214;28;20039;-64
2023/08/08 01:10:25;;;;;;;5.50;1.80;;;;;;;11.16;100.00;100524.56;6114456;28;20036;-63
2023/08/08 01:13:22;;;;;;;6.38;1.80;;;;;;;11.11;100.00;100522.38;6102348;28;20028;-64
2023/08/08 01:16:19;;;;;;;6.57;2.03;;;;;;;11.18;100.00;100522.56;6097931;28;20368;-64
2023/08/08 01:19:21;;;;;;;6.32;1.70;;;;;;;11.15;100.00;100522.88;6097457;28;20127;-64
2023/08/08 01:22:25;;;;;;;6.32;1.92;;;;;;;11.12;100.00;100516.06;6098968;28;20040;-63
2023/08/08 01:25:21;;;;;;;5.32;1.85;;;;;;;11.17;100.00;100527.03;6096718;28;20033;-63
2023/08/08 01:28:21;;;;;;;4.88;1.65;;;;;;;11.07;100.00;100509.56;6099165;28;20550;-63
2023/08/08 01:31:16;;;;;;;6.63;1.90;;;;;;;10.97;100.00;100503.50;6102925;28;20025;-63
2023/08/08 01:34:12;;;;;;;4.47;2.07;;;;;;;11.04;100.00;100521.31;6105288;28;20082;-63
2023/08/08 01:37:15;;;;;;;3.83;1.92;;;;;;;11.07;100.00;100514.84;6102500;28;20032;-64
2023/08/08 01:40:12;;;;;;;3.83;1.80;;;;;;;11.08;100.00;100511.22;6102200;28;20041;-64
2023/08/08 01:43:08;;;;;;;12.48;2.05;;;;;;;11.09;100.00;100507.56;6109478;28;20595;-64
2023/08/08 01:46:04;;;;;;;4.68;2.33;;;;;;;11.13;100.00;100511.59;6102057;28;20134;-64
2023/08/08 01:48:59;;;;;;;6.15;1.90;;;;;;;11.08;100.00;100490.84;6106503;28;20036;-64
2023/08/08 01:51:54;;;;;;;4.60;2.10;;;;;;;11.04;100.00;100486.81;6103032;28;20028;-64
2023/08/08 01:54:50;;;;;;;5.40;2.40;;;;;;;11.08;100.00;100490.00;6106945;28;20094;-64
2023/08/08 01:57:45;;;;;;;6.80;2.40;;;;;;;11.01;100.00;100478.31;6101270;28;20099;-64
2023/08/08 02:00:41;;;;;;;5.93;2.17;;;;;;;11.11;100.00;100489.69;6098829;28;20542;-63
2023/08/08 02:03:36;;;;;;;8.38;2.25;;;;;;;11.11;100.00;100497.66;6105901;28;20055;-64
2023/08/08 02:06:31;;;;;;;6.07;2.03;;;;;;;11.04;100.00;100478.00;6108609;28;20525;-64
2023/08/08 02:09:27;;;;;;;5.27;1.83;;;;;;;11.15;100.00;100477.75;6111884;28;20120;-64
2023/08/08 02:12:22;;;;;;;7.05;1.92;;;;;;;11.12;100.00;100481.56;6108854;28;20070;-64
2023/08/08 02:15:18;;;;;;;3.77;1.83;;;;;;;11.17;100.00;100473.97;6097266;28;20033;-64
2023/08/08 02:18:13;;;;;;;6.57;2.97;;;;;;;11.14;100.00;100457.53;6097830;28;20025;-64
2023/08/08 02:21:09;;;;;;;4.30;1.92;;;;;;;11.21;100.00;100466.53;6114014;28;20781;-63
2023/08/08 02:24:04;;;;;;;5.03;1.92;;;;;;;11.23;100.00;100467.19;6110970;28;20032;-64
2023/08/08 02:26:59;;;;;;;5.78;2.53;;;;;;;11.18;100.00;100453.56;6101753;28;20430;-63
2023/08/08 02:29:55;;;;;;;4.10;2.20;;;;;;;11.30;100.00;100468.25;6097694;28;20064;-64
2023/08/08 02:32:50;;;;;;;4.00;1.80;;;;;;;11.26;100.00;100465.06;6102965;28;20134;-64
2023/08/08 02:35:45;;;;;;;4.20;2.07;;;;;;;11.26;100.00;100466.91;6100512;28;20170;-63
2023/08/08 02:38:41;;;;;;;5.72;2.53;;;;;;;11.25;100.00;100454.63;6097577;28;20079;-64
2023/08/08 02:41:36;;;;;;;8.57;2.60;;;;;;;11.42;100.00;100482.91;6100640;28;20029;-64
2023/08/08 02:44:31;;;;;;;6.88;2.55;;;;;;;11.45;100.00;100468.50;6097797;28;20024;-64
2023/08/08 02:47:27;;;;;;;4.30;2.23;;;;;;;11.45;100.00;100465.84;6091917;28;20028;-64
2023/08/08 02:50:22;;;;;;;5.50;2.67;;;;;;;11.41;100.00;100449.41;6097343;28;20421;-64
2023/08/08 02:53:17;;;;;;;9.50;2.37;;;;;;;11.50;100.00;100475.00;6097237;28;20025;-64
2023/08/08 02:56:13;;;;;;;5.53;2.53;;;;;;;11.43;100.00;100455.38;6097082;28;20283;-64
2023/08/08 02:59:08;;;;;;;5.43;2.50;;;;;;;11.54;100.00;100475.53;6097119;28;20025;-64
2023/08/08 03:02:04;;;;;;;12.53;3.03;;;;;;;11.48;100.00;100453.09;6097492;28;20282;-64
2023/08/08 03:04:59;;;;;;;5.72;2.40;;;;;;;11.63;100.00;100475.38;6097728;28;20096;-64
2023/08/08 03:07:55;;;;;;;7.73;2.57;;;;;;;11.68;100.00;100466.97;6097131;28;20109;-64
2023/08/08 03:10:50;;;;;;;6.77;2.57;;;;;;;11.71;100.00;100462.19;6097195;28;20287;-64
2023/08/08 03:13:45;;;;;;;8.87;2.67;;;;;;;11.78;100.00;100462.38;6096316;28;20036;-64
2023/08/08 03:16:41;;;;;;;6.17;2.60;;;;;;;11.86;100.00;100460.59;6097358;28;20091;-64
2023/08/08 03:19:36;;;;;;;7.30;2.80;;;;;;;11.81;100.00;100446.97;6112568;28;20449;-63
2023/08/08 03:22:31;;;;;;;7.00;2.30;;;;;;;11.88;100.00;100447.97;6109328;28;20127;-64
2023/08/08 03:25:26;;;;;;;6.10;2.50;;;;;;;11.91;100.00;100446.81;6096453;28;20036;-64
2023/08/08 03:28:22;;;;;;;5.60;2.67;;;;;;;12.06;100.00;100460.34;6096533;28;20078;-64
2023/08/08 03:31:17;;;;;;;5.87;2.77;;;;;;;12.07;100.00;100454.84;6097667;28;20271;-64
2023/08/08 03:34:12;;;;;;;5.53;2.40;;;;;;;11.98;100.00;100436.41;6096153;28;20024;-64
2023/08/08 03:37:08;;;;;;;6.07;2.37;;;;;;;12.06;100.00;100447.03;6105476;28;20520;-64
2023/08/08 03:40:03;;;;;;;9.67;2.73;;;;;;;12.05;100.00;100443.56;6096935;28;20453;-64
2023/08/08 03:42:59;;;;;;;5.53;2.58;;;;;;;11.97;100.00;100427.59;6098452;28;20802;-64
2023/08/08 03:45:54;;;;;;;9.43;2.80;;;;;;;12.04;100.00;100436.56;6086779;28;20041;-64
2023/08/08 03:48:49;;;;;;;7.80;2.53;;;;;;;12.13;100.00;100440.91;6110107;28;20024;-64
2023/08/08 03:51:45;;;;;;;6.30;2.50;;;;;;;12.21;100.00;100442.75;6098025;28;20151;-64
2023/08/08 03:54:40;;;;;;;8.40;2.40;;;;;;;12.16;100.00;100429.13;6100406;28;20028;-64
2023/08/08 03:57:35;;;;;;;4.90;2.10;;;;;;;12.25;100.00;100433.47;6101213;28;20024;-64
2023/08/08 04:00:31;;;;;;;6.13;3.03;;;;;;;12.29;100.00;100418.84;6109795;28;20068;-63
2023/08/08 04:03:26;;;;;;;8.93;2.47;;;;;;;12.38;100.00;100433.81;6101242;28;20017;-64
2023/08/08 04:06:22;;;;;;;10.00;3.00;;;;;;;12.37;100.00;100421.50;6100970;28;20460;-64
2023/08/08 04:09:17;;;;;;;5.77;2.57;;;;;;;12.45;100.00;100432.16;6100651;28;20361;-65
2023/08/08 04:12:13;;;;;;;6.55;2.67;;;;;;;12.43;100.00;100432.31;6104251;28;20017;-64
2023/08/08 04:15:09;;;;;;;5.13;2.50;;;;;;;12.40;100.00;100423.84;6107732;28;20033;-64
2023/08/08 04:18:06;;;;;;;6.05;2.70;;;;;;;12.41;100.00;100422.84;6100175;28;20279;-64
2023/08/08 04:21:01;;;;;;;6.47;2.92;;;;;;;12.51;100.00;100436.81;6099192;28;20383;-64
2023/08/08 04:23:56;;;;;;;5.40;2.30;;;;;;;12.46;100.00;100420.53;6098141;28;20032;-64
2023/08/08 04:26:52;;;;;;;8.40;3.00;;;;;;;12.53;100.00;100429.50;6100616;28;20076;-64
2023/08/08 04:29:47;;;;;;;5.70;2.30;;;;;;;12.52;100.00;100425.19;6106191;28;20102;-64
2023/08/08 04:32:42;;;;;;;6.80;2.83;;;;;;;12.52;100.00;100430.50;6103686;28;20110;-64
2023/08/08 04:35:38;;;;;;;6.50;2.40;;;;;;;12.55;100.00;100427.53;6099724;28;20251;-64
2023/08/08 04:38:33;;;;;;;9.25;2.80;;;;;;;12.51;100.00;100419.03;6099978;28;20280;-64
2023/08/08 04:41:29;;;;;;;6.43;3.20;;;;;;;12.55;100.00;100419.53;6099744;28;20029;-64
2023/08/08 04:44:24;;;;;;;5.17;2.30;;;;;;;12.61;100.00;100413.53;6099495;28;20060;-64
2023/08/08 04:47:19;;;;;;;5.27;2.57;;;;;;;12.59;100.00;100404.91;6099413;28;20290;-64
2023/08/08 04:50:15;;;;;;;7.23;2.33;;;;;;;12.72;100.00;100423.84;6100054;28;20093;-64
2023/08/08 04:53:10;;;;;;;6.30;2.83;;;;;;;12.71;100.00;100414.22;6099718;28;20350;-64
2023/08/08 04:56:06;;;;;;;7.68;2.67;;;;;;;12.67;100.00;100401.41;6098589;28;20029;-64
2023/08/08 04:59:01;;;;;;;5.72;3.05;;;;;;;12.81;100.00;100414.88;6099727;28;20040;-63
2023/08/08 05:01:57;;;;;;;4.82;2.63;;;;;;;12.85;100.00;100416.22;6099158;28;20071;-64
2023/08/08 05:04:52;;;;;;;4.80;2.17;;;;;;;12.78;100.00;100399.22;6104289;28;20044;-63
2023/08/08 05:07:47;;;;;;;8.00;2.37;;;;;;;12.86;100.00;100401.88;6102970;28;20388;-64
2023/08/08 05:10:43;;;;;;;5.53;2.38;;;;;;;12.81;100.00;100382.94;6100477;28;20052;-64
2023/08/08 05:13:38;;;;;;;5.65;2.05;;;;;;;12.93;100.00;100410.88;6107245;28;20441;-64
2023/08/08 05:16:34;;;;;;;4.40;2.20;;;;;;;12.94;100.00;100409.03;6098755;28;20056;-64
2023/08/08 05:19:29;;;;;;;5.50;2.30;;;;;;;12.78;100.00;100393.91;6099434;28;20033;-64
2023/08/08 05:22:24;;;;;;;9.13;2.03;;;;;;;12.89;100.00;100393.56;6098875;28;20044;-64
2023/08/08 05:25:20;;;;;;;3.88;1.90;;;;;;;12.99;100.00;100402.19;6099214;28;20040;-64
2023/08/08 05:28:15;;;;;;;4.93;2.10;;;;;;;12.97;100.00;100382.91;6098984;28;20024;-64
2023/08/08 05:31:10;;;;;;;4.97;2.13;;;;;;;13.09;100.00;100380.75;6103219;28;20025;-64
2023/08/08 05:34:06;;;;;;;4.20;1.80;;;;;;;13.16;100.00;100395.03;6102764;28;20122;-63
2023/08/08 05:37:01;;;;;;;3.77;2.20;;;;;;;13.09;100.00;100373.59;6098465;28;20368;-64
2023/08/08 05:39:56;;;;;;;5.10;1.83;;;;;;;13.17;100.00;100370.09;6105496;28;20452;-64
2023/08/08 05:42:52;;;;;;;7.80;2.20;;;;;;;13.22;100.00;100382.88;6091445;28;20025;-64
2023/08/08 05:45:47;;;;;;;8.70;3.80;;;;;;;13.25;100.00;100379.88;6096120;28;20048;-64
2023/08/08 05:48:42;;;;;;;9.37;2.77;;;;;;;13.25;100.00;100382.53;6098360;28;20099;-64
2023/08/08 05:51:38;;;;;;;6.60;1.90;;;;;;;13.40;100.00;100402.94;6097897;28;20047;-64
2023/08/08 05:54:33;;;;;;;4.00;2.50;;;;;;;13.51;100.00;100385.75;6101622;28;20039;-64
2023/08/08 05:57:28;;;;;;;4.80;2.47;;;;;;;13.57;100.00;100395.72;6104725;28;20055;-64
2023/08/08 06:00:23;;;;;;;10.83;2.70;;;;;;;13.67;100.00;100402.50;6097603;28;20029;-64
2023/08/08 06:03:19;;;;;;;5.65;2.45;;;;;;;13.77;100.00;100420.13;6106959;28;20036;-64
2023/08/08 06:06:14;;;;;;;5.63;2.20;;;;;;;13.73;100.00;100400.97;6097809;28;20037;-64
2023/08/08 06:09:10;;;;;;;7.47;2.67;;;;;;;13.74;100.00;100405.31;6099598;28;20279;-64
2023/08/08 06:12:06;;;;;;;7.22;2.60;;;;;;;14.00;100.00;100416.50;6098197;28;20040;-64
2023/08/08 06:15:01;;;;;;;4.95;2.33;;;;;;;14.22;100.00;100409.53;6097729;28;20029;-64
2023/08/08 06:17:57;;;;;;;6.28;2.42;;;;;;;14.26;100.00;100409.03;6097814;28;20056;-64
2023/08/08 06:20:52;;;;;;;6.43;2.90;;;;;;;14.21;100.00;100406.03;6106554;28;20035;-64
2023/08/08 06:23:49;;;;;;;6.70;2.83;;;;;;;14.15;100.00;100398.75;6103847;28;20471;-64
2023/08/08 06:26:44;;;;;;;4.20;2.58;;;;;;;14.21;100.00;100415.91;6097953;28;20029;-63
2023/08/08 06:29:40;;;;;;;7.55;2.67;;;;;;;14.11;100.00;100408.09;6103271;28;20051;-63
2023/08/08 06:32:35;;;;;;;6.70;2.90;;;;;;;14.03;100.00;100405.50;6095070;28;20048;-63
2023/08/08 06:35:30;;;;;;;5.70;2.90;;;;;;;14.06;100.00;100413.16;6096693;28;20283;-63
2023/08/08 06:38:26;;;;;;;7.67;3.10;;;;;;;14.01;100.00;100399.50;6096647;28;20017;-63
2023/08/08 06:41:21;;;;;;;6.57;3.00;;;;;;;14.21;100.00;100419.38;6096191;28;20087;-63
2023/08/08 06:44:16;;;;;;;9.17;3.40;;;;;;;14.36;100.00;100407.97;6088989;28;20278;-64
2023/08/08 06:47:12;;;;;;;6.60;2.73;;;;;;;14.36;100.00;100403.47;6105497;28;20031;-64
2023/08/08 06:50:07;;;;;;;5.07;3.30;;;;;;;14.52;100.00;100415.84;6097558;28;20388;-64
2023/08/08 06:53:04;;;;;;;10.38;3.22;;;;;;;14.89;100.00;100407.88;6097753;28;20297;-64
2023/08/08 06:55:59;;;;;;;7.20;3.00;;;;;;;15.01;99.48;100414.41;6105457;28;20475;-64
2023/08/08 06:58:55;;;;;;;8.00;2.63;;;;;;;15.32;98.21;100409.78;6097160;28;20028;-63
2023/08/08 07:01:50;;;;;;;7.37;3.00;;;;;;;15.97;96.93;100417.00;6108731;28;20037;-64
2023/08/08 07:04:45;;;;;;;5.82;2.92;;;;;;;16.09;91.99;100400.25;6096763;28;20024;-64
2023/08/08 07:07:41;;;;;;;6.57;3.08;;;;;;;16.32;90.55;100385.88;6097268;28;20107;-64
2023/08/08 07:10:36;;;;;;;6.03;3.20;;;;;;;16.67;90.61;100393.03;6101356;28;20372;-64
2023/08/08 07:13:32;;;;;;;5.00;2.67;;;;;;;16.39;88.01;100403.66;6103866;28;20066;-63
2023/08/08 07:16:27;;;;;;;6.05;2.90;;;;;;;15.83;91.58;100404.50;6109934;28;20082;-64
2023/08/08 07:19:22;;;;;;;5.53;3.03;;;;;;;16.20;90.82;100390.91;6107863;28;20464;-64
2023/08/08 07:22:18;;;;;;;6.43;2.97;;;;;;;16.31;89.76;100387.72;6100533;28;20044;-64
2023/08/08 07:25:13;;;;;;;5.90;2.60;;;;;;;16.71;88.27;100402.34;6102091;28;20043;-64
2023/08/08 07:28:08;;;;;;;6.55;2.75;;;;;;;16.80;87.15;100386.94;6095345;28;20029;-64
2023/08/08 07:31:04;;;;;;;4.60;2.67;;;;;;;16.51;86.66;100379.91;6107115;28;20024;-64
2023/08/08 07:33:59;;;;;;;7.63;2.73;;;;;;;16.87;84.56;100393.22;6101366;28;20381;-64
2023/08/08 07:36:55;;;;;;;6.90;2.67;;;;;;;17.09;83.09;100368.03;6101127;28;20361;-64
2023/08/08 07:39:51;;;;;;;6.55;2.53;;;;;;;17.33;80.04;100358.66;6113169;28;20052;-65
2023/08/08 07:42:48;;;;;;;5.22;2.45;;;;;;;17.18;80.50;100364.13;6107625;28;20039;-64
2023/08/08 07:45:43;;;;;;;7.50;2.78;;;;;;;16.78;82.52;100370.25;6100940;28;20456;-64
2023/08/08 07:48:38;;;;;;;9.05;2.42;;;;;;;16.36;81.91;100337.13;6103259;28;20078;-64
2023/08/08 07:51:34;;;;;;;5.57;2.70;;;;;;;16.20;82.77;100358.81;6101377;28;20044;-65
2023/08/08 07:54:29;;;;;;;6.07;2.60;;;;;;;15.97;84.25;100363.50;6103591;28;20033;-64
2023/08/08 07:57:26;;;;;;;7.10;2.63;;;;;;;15.92;83.59;100361.41;6101159;28;20093;-64
2023/08/08 08:00:22;;;;;;;4.93;2.30;;;;;;;16.00;83.86;100363.97;6105250;28;20457;-64
2023/08/08 08:03:17;;;;;;;6.60;2.40;;;;;;;16.10;83.92;100358.31;6109881;28;20040;-65
2023/08/08 08:06:12;;;;;;;4.87;2.40;;;;;;;15.86;83.32;100361.34;6109604;28;20020;-65
2023/08/08 08:09:08;;;;;;;3.50;2.30;;;;;;;15.81;84.60;100375.28;6093786;28;20079;-64
2023/08/08 08:12:03;;;;;;;5.82;2.72;;;;;;;15.93;84.32;100356.88;6100460;28;20267;-64
2023/08/08 08:14:59;;;;;;;7.95;2.85;;;;;;;16.04;85.09;100375.94;6100871;28;20032;-64
2023/08/08 08:17:54;;;;;;;4.75;2.35;;;;;;;16.02;85.06;100377.97;6099914;28;20189;-64
2023/08/08 08:20:49;;;;;;;7.77;2.30;;;;;;;16.28;83.20;100361.34;6098719;28;20029;-64
2023/08/08 08:23:46;;;;;;;4.80;1.83;;;;;;;16.50;80.30;100352.28;6091672;28;21729;-64
2023/08/08 08:26:41;;;;;;;4.32;1.80;;;;;;;16.78;78.33;100356.88;6108430;28;20370;-64
2023/08/08 08:29:36;;;;;;;7.07;1.85;;;;;;;17.06;76.02;100349.66;6098878;28;20494;-64
2023/08/08 08:32:33;;;;;;;3.10;1.87;;;;;;;17.07;74.99;100335.22;6105198;28;20037;-65
2023/08/08 08:35:29;;;;;;;4.50;1.63;;;;;;;17.07;73.69;100336.06;6091298;28;20024;-64
2023/08/08 08:38:24;;;;;;;2.97;1.43;;;;;;;17.04;75.01;100324.91;6097912;28;20024;-64
2023/08/08 08:41:25;;;;;;;6.03;1.63;;;;;;;17.47;71.82;100334.41;6100469;28;20268;-64
2023/08/08 08:44:21;;;;;;;4.07;1.58;;;;;;;17.80;72.04;100331.88;6109357;28;20298;-65
2023/08/08 08:47:17;;;;;;;2.80;1.40;;;;;;;17.93;68.23;100323.03;6098509;28;20040;-65
2023/08/08 08:50:14;;;;;;;1.95;1.13;;;;;;;17.88;67.94;100322.81;6105574;28;20380;-64
2023/08/08 08:53:10;;;;;;;2.92;1.20;;;;;;;18.47;64.98;100323.72;6115169;28;20025;-64
2023/08/08 08:56:06;;;;;;;6.20;1.55;;;;;;;18.87;62.69;100330.75;6095327;28;20028;-65
2023/08/08 08:59:01;;;;;;;6.10;1.33;;;;;;;18.56;63.03;100305.56;6097089;28;20464;-65
2023/08/08 09:01:56;;;;;;;3.22;1.25;;;;;;;19.01;62.73;100310.03;6102640;28;20028;-64
2023/08/08 09:04:52;;;;;;;2.83;1.15;;;;;;;18.87;61.12;100320.00;6099057;28;20025;-64
2023/08/08 09:07:48;;;;;;;3.40;1.05;;;;;;;19.08;59.46;100305.47;6103388;28;20028;-64
2023/08/08 09:10:43;;;;;;;4.40;1.17;;;;;;;19.49;56.64;100313.22;6098553;28;20102;-64
2023/08/08 09:13:40;;;;;;;3.83;1.00;;;;;;;19.84;56.29;100302.91;6106212;28;20044;-64
2023/08/08 09:16:35;;;;;;;3.92;1.20;;;;;;;19.81;56.18;100297.97;6099448;28;21693;-65
2023/08/08 09:19:30;;;;;;;5.20;1.27;;;;;;;19.07;57.16;100324.50;6103657;28;20072;-65
2023/08/08 09:22:26;;;;;;;4.07;1.30;;;;;;;18.55;58.85;100317.34;6099100;28;20039;-64
2023/08/08 09:25:23;;;;;;;2.95;1.35;;;;;;;18.52;60.89;100332.00;6103597;28;20036;-65
2023/08/08 09:28:18;;;;;;;4.32;1.90;;;;;;;17.90;67.23;100304.66;6099397;28;20036;-64
2023/08/08 09:31:14;;;;;;;7.20;2.22;;;;;;;17.40;72.93;100352.31;6103971;28;20456;-65
2023/08/08 09:34:09;;;;;;;3.38;1.70;;;;;;;16.44;73.92;100344.22;6097235;28;20039;-64
2023/08/08 09:37:06;;;;;;;2.90;1.53;;;;;;;15.41;85.82;100336.50;6098023;28;20025;-64
2023/08/08 09:40:05;;;;;;;4.53;1.85;;;;;;;14.36;98.98;100327.94;6097846;28;20350;-64
2023/08/08 09:43:00;;;;;;;4.60;2.20;;;;;;;14.00;100.00;100338.34;6098006;28;20029;-64
2023/08/08 09:45:55;;;;;;;5.55;2.58;;;;;;;14.09;100.00;100332.81;6093411;28;20090;-64
2023/08/08 09:48:51;;;;;;;7.73;2.63;;;;;;;15.05;100.00;100356.13;6097404;28;20060;-63
2023/08/08 09:51:47;;;;;;;5.18;2.97;;;;;;;15.79;100.00;100336.38;6093550;28;20048;-64
2023/08/08 09:54:42;;;;;;;6.80;2.55;;;;;;;16.97;100.00;100361.53;6119733;28;20034;-64
2023/08/08 09:57:41;;;;;;;4.82;2.60;;;;;;;17.22;92.74;100317.19;6099874;28;20135;-64
2023/08/08 10:00:37;;;;;;;9.07;2.50;;;;;;;17.26;89.58;100319.25;6098037;28;20483;-64
2023/08/08 10:03:33;;;;;;;6.43;2.28;;;;;;;16.93;88.17;100322.78;6104781;28;20042;-64
2023/08/08 10:06:28;;;;;;;4.55;2.13;;;;;;;16.97;88.61;100330.22;6112842;28;20352;-64
2023/08/08 10:09:24;;;;;;;7.07;2.30;;;;;;;16.88;89.86;100328.72;6097741;28;20025;-65
2023/08/08 10:12:20;;;;;;;4.82;2.38;;;;;;;16.60;84.70;100312.66;6097456;28;20464;-64
2023/08/08 10:15:15;;;;;;;2.90;1.73;;;;;;;16.66;84.32;100327.09;6102471;28;20039;-64
2023/08/08 10:18:12;;;;;;;9.00;2.40;;;;;;;16.67;84.30;100321.56;6097227;28;20608;-64
2023/08/08 10:21:10;;;;;;;5.50;2.10;;;;;;;16.72;82.87;100334.38;6112894;28;20059;-64
2023/08/08 10:24:07;;;;;;;8.63;2.10;;;;;;;16.64;79.92;100343.38;6096846;28;20434;-64
2023/08/08 10:27:04;;;;;;;4.53;2.38;;;;;;;16.42;82.37;100335.53;6097307;28;20032;-67
2023/08/08 10:30:09;;;;;;;7.03;2.35;;;;;;;16.69;82.15;100331.28;6097298;28;20039;-64
2023/08/08 10:33:04;;;;;;;6.13;3.13;;;;;;;16.80;80.45;100330.72;6097000;28;20079;-66
2023/08/08 10:36:02;;;;;;;5.57;2.80;;;;;;;16.82;80.22;100310.78;6097946;28;20052;-64
2023/08/08 10:38:58;;;;;;;5.63;2.83;;;;;;;16.87;80.53;100305.66;6096080;28;20090;-64
2023/08/08 10:41:53;;;;;;;4.90;2.85;;;;;;;16.82;79.08;100317.97;6096647;28;20041;-64
2023/08/08 10:44:56;;;;;;;4.83;2.50;;;;;;;16.63;81.86;100322.97;6106666;28;20044;-66
2023/08/08 10:47:52;;;;;;;5.93;2.63;;;;;;;16.32;85.79;100330.53;6099298;28;20060;-65
2023/08/08 10:50:47;;;;;;;4.43;2.10;;;;;;;15.88;92.10;100320.00;6096221;28;20032;-64
2023/08/08 10:53:43;;;;;;;3.23;1.80;;;;;;;15.72;95.78;100332.78;6095187;28;20108;-64
2023/08/08 10:56:38;;;;;;;3.38;1.60;;;;;;;16.21;97.66;100314.97;6096512;28;20407;-64
2023/08/08 10:59:37;;;;;;;5.13;1.70;;;;;;;16.80;92.85;100320.00;6098943;28;20037;-64
2023/08/08 11:02:33;;;;;;;6.43;1.98;;;;;;;16.87;90.95;100310.19;6104684;28;20268;-64
2023/08/08 11:05:30;;;;;;;4.30;1.85;;;;;;;17.75;85.07;100289.56;6101587;28;20321;-64
2023/08/08 11:08:25;;;;;;;4.45;2.13;;;;;;;18.72;71.07;100281.78;6104934;28;20384;-64
2023/08/08 11:11:21;;;;;;;4.43;1.63;;;;;;;19.44;70.15;100304.97;6102573;28;20067;-64
2023/08/08 11:14:19;;;;;;;5.03;1.73;;;;;;;19.70;62.44;100299.47;6102547;28;20056;-64
2023/08/08 11:17:14;;;;;;;7.10;1.70;;;;;;;19.83;59.53;100307.47;6103818;28;20094;-64
2023/08/08 11:20:10;;;;;;;4.97;1.77;;;;;;;19.33;60.23;100305.59;6105007;28;20061;-65
2023/08/08 11:23:09;;;;;;;4.90;1.85;;;;;;;19.10;63.41;100316.03;6091144;28;20089;-64
2023/08/08 11:26:05;;;;;;;3.75;1.40;;;;;;;19.41;61.55;100305.38;6109431;28;20345;-64
2023/08/08 11:29:01;;;;;;;5.03;1.53;;;;;;;19.28;61.63;100300.03;6101134;28;20028;-65
2023/08/08 11:31:59;;;;;;;7.97;1.60;;;;;;;19.24;60.12;100296.13;6101950;28;20028;-64
2023/08/08 11:34:55;;;;;;;4.65;1.50;;;;;;;19.01;59.97;100310.88;6103947;28;20107;-64
2023/08/08 11:37:52;;;;;;;3.75;1.10;;;;;;;18.90;60.48;100314.19;6100888;28;20106;-64
2023/08/08 11:40:48;;;;;;;2.28;1.30;;;;;;;19.14;60.72;100311.84;6101114;28;20078;-64
2023/08/08 11:43:44;;;;;;;6.28;1.90;;;;;;;19.16;59.63;100296.38;6115350;28;20021;-65
2023/08/08 11:46:44;;;;;;;3.38;1.88;;;;;;;18.86;61.51;100312.16;6100679;28;20044;-64
2023/08/08 11:49:41;;;;;;;6.68;2.58;;;;;;;18.26;63.35;100295.19;6100861;28;20419;-64
2023/08/08 11:52:40;;;;;;;5.65;1.73;;;;;;;18.26;64.58;100310.50;6104675;28;20057;-64
2023/08/08 11:55:36;;;;;;;5.43;1.60;;;;;;;18.33;66.10;100289.84;6099767;28;20107;-64
2023/08/08 11:58:31;;;;;;;6.00;1.60;;;;;;;18.72;62.16;100295.22;6100448;28;20039;-64
2023/08/08 12:01:27;;;;;;;3.22;1.50;;;;;;;18.99;61.32;100302.19;6100615;28;20017;-64
2023/08/08 12:04:22;;;;;;;2.88;1.40;;;;;;;19.34;61.09;100277.66;6097613;28;20056;-64
2023/08/08 12:07:19;;;;;;;4.28;1.63;;;;;;;19.43;60.45;100284.50;6103075;28;20460;-65
2023/08/08 12:10:21;;;;;;;7.68;2.05;;;;;;;19.32;62.79;100291.31;6100357;28;20483;-64
2023/08/08 12:13:20;;;;;;;4.05;1.67;;;;;;;19.26;61.53;100291.34;6098495;28;20032;-65
2023/08/08 12:16:16;;;;;;;3.42;1.23;;;;;;;19.17;59.17;100281.88;6100341;28;20033;-65
2023/08/08 12:19:12;;;;;;;2.50;1.02;;;;;;;18.95;61.06;100273.25;6100081;28;20461;-64
2023/08/08 12:22:07;;;;;;;4.13;1.20;;;;;;;18.48;61.35;100298.53;6100855;28;20033;-65
2023/08/08 12:25:03;;;;;;;3.23;1.23;;;;;;;17.61;69.33;100300.47;6099273;28;20041;-64
2023/08/08 12:27:58;;;;;;;6.00;1.70;;;;;;;16.88;76.93;100298.41;6099689;28;20032;-64
2023/08/08 12:30:54;;;;;;;2.83;1.10;;;;;;;16.80;78.20;100301.25;6100125;28;20056;-64
2023/08/08 12:33:49;;;;;;;8.13;1.33;;;;;;;17.40;79.99;100287.13;6102132;28;20376;-64
2023/08/08 12:36:44;;;;;;;6.63;1.60;;;;;;;17.97;74.35;100294.75;6103500;28;20649;-64
2023/08/08 12:39:40;;;;;;;2.33;1.07;;;;;;;18.57;70.01;100275.81;6099681;28;20023;-65
2023/08/08 12:42:35;;;;;;;4.87;1.30;;;;;;;18.97;62.27;100293.50;6099411;28;20676;-64
2023/08/08 12:45:30;;;;;;;4.60;1.33;;;;;;;18.98;60.05;100284.41;6102873;28;20279;-64
2023/08/08 12:48:25;;;;;;;3.37;1.10;;;;;;;19.28;58.77;100294.66;6099577;28;20025;-64
2023/08/08 12:51:21;;;;;;;2.53;1.20;;;;;;;19.12;60.15;100295.94;6099440;28;20482;-64
2023/08/08 12:54:16;;;;;;;3.47;1.00;;;;;;;19.43;57.28;100281.81;6098763;28;20054;-64
2023/08/08 12:57:11;;;;;;;2.47;1.03;;;;;;;19.58;55.63;100285.88;6098982;28;20052;-64
2023/08/08 13:00:08;;;;;;;3.00;1.00;;;;;;;19.40;55.96;100263.41;6099258;28;20036;-64
2023/08/08 13:03:04;;;;;;;3.92;0.93;;;;;;;19.65;56.01;100296.56;6090777;28;20317;-64
2023/08/08 13:06:00;;;;;;;3.03;1.02;;;;;;;19.44;56.82;100289.66;6098674;28;20465;-65
2023/08/08 13:08:55;;;;;;;2.72;0.80;;;;;;;19.50;57.08;100309.50;6099001;28;20040;-64
2023/08/08 13:11:52;;;;;;;2.25;1.20;;;;;;;19.29;56.98;100282.88;6104247;28;20456;-65
2023/08/08 13:14:48;;;;;;;4.30;1.20;;;;;;;18.84;57.77;100288.16;6098407;28;20036;-65
2023/08/08 13:17:43;;;;;;;4.33;1.30;;;;;;;18.52;59.66;100280.16;6098631;28;20033;-65
2023/08/08 13:20:38;;;;;;;2.97;1.00;;;;;;;18.16;62.27;100261.75;6099012;28;20271;-64
2023/08/08 13:23:33;;;;;;;2.50;0.97;;;;;;;18.05;62.00;100287.34;6099986;28;20565;-65
2023/08/08 13:26:29;;;;;;;3.80;1.20;;;;;;;17.88;62.21;100286.09;6098268;28;20473;-65
2023/08/08 13:29:24;;;;;;;3.83;0.83;;;;;;;17.84;62.11;100312.50;6098652;28;20029;-65
2023/08/08 13:32:19;;;;;;;3.87;1.13;;;;;;;17.11;73.28;100357.94;6098630;28;20025;-64
2023/08/08 13:35:16;;;;;;;3.45;1.20;;;;;;;15.07;92.84;100387.00;6098308;28;20124;-66